createdAt,value
2017-03-08T04:00:56.502Z,17.38
2017-03-08T04:01:22.070Z,17.43
2017-03-08T04:01:47.634Z,17.38
2017-03-08T04:02:13.367Z,17.47
2017-03-08T04:02:38.905Z,17.44
2017-03-08T04:03:04.454Z,17.43
2017-03-08T04:03:30.032Z,17.44
2017-03-08T04:03:55.595Z,17.43
2017-03-08T04:04:21.171Z,17.43
2017-03-08T04:04:47.486Z,17.44
2017-03-08T04:05:13.721Z,17.44
2017-03-08T04:05:38.631Z,17.46
2017-03-08T04:06:04.280Z,17.46
2017-03-08T04:06:29.852Z,17.44
2017-03-08T04:06:55.405Z,17.4
2017-03-08T04:07:20.983Z,17.47
2017-03-08T04:07:47.248Z,17.47
2017-03-08T04:08:12.836Z,17.44
2017-03-08T04:08:39.119Z,17.46
2017-03-08T04:09:04.686Z,17.43
2017-03-08T04:09:30.252Z,17.4
2017-03-08T04:09:56.726Z,17.43
2017-03-08T04:10:21.399Z,17.44
2017-03-08T04:10:46.980Z,17.43
2017-03-08T04:11:12.534Z,17.46
2017-03-08T04:11:38.099Z,17.41
2017-03-08T04:12:03.671Z,17.43
2017-03-08T04:12:29.252Z,17.44
2017-03-08T04:12:54.784Z,17.43
2017-03-08T04:13:20.338Z,17.43
2017-03-08T04:13:45.879Z,17.38
2017-03-08T04:14:11.442Z,17.43
2017-03-08T04:14:36.977Z,17.44
2017-03-08T04:15:02.509Z,17.43
2017-03-08T04:15:28.730Z,17.43
2017-03-08T04:15:53.633Z,17.43
2017-03-08T04:16:19.182Z,17.4
2017-03-08T04:16:44.830Z,17.4
2017-03-08T04:17:10.423Z,17.41
2017-03-08T04:17:36.726Z,17.46
2017-03-08T04:18:01.561Z,17.41
2017-03-08T04:18:27.736Z,17.4
2017-03-08T04:18:53.294Z,17.43
2017-03-08T04:19:18.871Z,17.41
2017-03-08T04:19:44.447Z,17.38
2017-03-08T04:20:10.012Z,17.43
2017-03-08T04:20:35.593Z,17.43
2017-03-08T04:21:01.151Z,17.38
2017-03-08T04:21:26.703Z,17.4
2017-03-08T04:21:52.342Z,17.43
2017-03-08T04:22:17.923Z,17.46
2017-03-08T04:22:43.487Z,17.46
2017-03-08T04:23:09.053Z,17.43
2017-03-08T04:23:34.703Z,17.43
2017-03-08T04:24:00.260Z,17.47
2017-03-08T04:24:25.870Z,17.41
2017-03-08T04:24:52.233Z,17.36
2017-03-08T04:25:17.092Z,17.48
2017-03-08T04:25:42.667Z,17.41
2017-03-08T04:26:08.233Z,17.46
2017-03-08T04:26:33.787Z,17.41
2017-03-08T04:26:59.372Z,17.38
2017-03-08T04:27:24.950Z,17.41
2017-03-08T04:27:50.536Z,17.43
2017-03-08T04:28:16.103Z,17.41
2017-03-08T04:28:41.692Z,17.38
2017-03-08T04:29:07.252Z,17.4
2017-03-08T04:29:32.816Z,17.38
2017-03-08T04:29:58.385Z,17.4
2017-03-08T04:30:23.954Z,17.4
2017-03-08T04:30:49.512Z,17.38
2017-03-08T04:31:15.083Z,17.41
2017-03-08T04:31:40.691Z,17.43
2017-03-08T04:32:06.263Z,17.41
2017-03-08T04:32:31.884Z,17.38
2017-03-08T04:32:57.458Z,17.38
2017-03-08T04:33:23.094Z,17.41
2017-03-08T04:33:48.655Z,17.4
2017-03-08T04:34:14.219Z,17.38
2017-03-08T04:34:39.787Z,17.38
2017-03-08T04:35:05.391Z,17.38
2017-03-08T04:35:30.971Z,17.38
2017-03-08T04:35:56.553Z,17.43
2017-03-08T04:36:22.270Z,17.43
2017-03-08T04:36:47.859Z,17.43
2017-03-08T04:37:13.422Z,17.4
2017-03-08T04:37:38.991Z,17.36
2017-03-08T04:38:04.565Z,17.44
2017-03-08T04:38:30.106Z,17.44
2017-03-08T04:38:55.641Z,17.35
2017-03-08T04:39:21.890Z,17.36
2017-03-08T04:39:47.469Z,17.36
2017-03-08T04:40:13.104Z,17.36
2017-03-08T04:40:38.787Z,17.36
2017-03-08T04:41:04.338Z,17.41
2017-03-08T04:41:29.879Z,17.38
2017-03-08T04:41:55.548Z,17.33
2017-03-08T04:42:21.099Z,17.4
2017-03-08T04:42:46.667Z,17.4
2017-03-08T04:43:12.191Z,17.36
2017-03-08T04:43:37.728Z,17.35
2017-03-08T04:44:03.301Z,17.4
2017-03-08T04:44:28.861Z,17.32
2017-03-08T04:44:54.443Z,17.36
2017-03-08T04:45:20.022Z,17.35
2017-03-08T04:45:45.594Z,17.4
2017-03-08T04:46:11.163Z,17.38
2017-03-08T04:46:37.339Z,17.38
2017-03-08T04:47:02.912Z,17.35
2017-03-08T04:47:28.475Z,17.36
2017-03-08T04:47:54.050Z,17.4
2017-03-08T04:48:19.611Z,17.35
2017-03-08T04:48:45.211Z,17.46
2017-03-08T04:49:10.779Z,17.36
2017-03-08T04:49:36.342Z,17.38
2017-03-08T04:50:01.899Z,17.43
2017-03-08T04:50:27.481Z,17.38
2017-03-08T04:50:53.141Z,17.36
2017-03-08T04:51:18.728Z,17.33
2017-03-08T04:51:44.410Z,17.36
2017-03-08T04:52:09.992Z,17.4
2017-03-08T04:52:35.557Z,17.38
2017-03-08T04:53:01.241Z,17.36
2017-03-08T04:53:26.808Z,17.36
2017-03-08T04:53:52.369Z,17.38
2017-03-08T04:54:17.928Z,17.38
2017-03-08T04:54:43.491Z,17.36
2017-03-08T04:55:09.062Z,17.43
2017-03-08T04:55:34.615Z,17.4
2017-03-08T04:56:00.229Z,17.33
2017-03-08T04:56:25.809Z,17.35
2017-03-08T04:56:51.382Z,17.36
2017-03-08T04:57:16.942Z,17.41
2017-03-08T04:57:42.524Z,17.38
2017-03-08T04:58:08.084Z,17.41
2017-03-08T04:58:33.658Z,17.36
2017-03-08T04:58:59.225Z,17.4
2017-03-08T04:59:24.782Z,17.36
2017-03-08T04:59:50.339Z,17.46
2017-03-08T05:00:15.928Z,17.44
2017-03-08T05:00:41.492Z,17.36
2017-03-08T05:01:07.091Z,17.36
2017-03-08T05:01:32.642Z,17.44
2017-03-08T05:01:58.205Z,17.44
2017-03-08T05:02:23.761Z,17.36
2017-03-08T05:02:49.349Z,17.41
2017-03-08T05:03:14.931Z,17.46
2017-03-08T05:03:40.502Z,17.43
2017-03-08T05:04:06.203Z,17.43
2017-03-08T05:04:31.782Z,17.38
2017-03-08T05:04:57.362Z,17.41
2017-03-08T05:05:22.920Z,17.36
2017-03-08T05:05:48.561Z,17.36
2017-03-08T05:06:14.118Z,17.38
2017-03-08T05:06:39.688Z,17.38
2017-03-08T05:07:05.245Z,17.38
2017-03-08T05:07:30.803Z,17.4
2017-03-08T05:07:56.370Z,17.4
2017-03-08T05:08:22.754Z,17.38
2017-03-08T05:08:47.552Z,17.43
2017-03-08T05:09:13.119Z,17.36
2017-03-08T05:09:38.699Z,17.36
2017-03-08T05:10:04.280Z,17.4
2017-03-08T05:10:29.880Z,17.38
2017-03-08T05:10:55.491Z,17.44
2017-03-08T05:11:21.041Z,17.41
2017-03-08T05:11:47.138Z,17.35
2017-03-08T05:12:12.712Z,17.4
2017-03-08T05:12:38.269Z,17.36
2017-03-08T05:13:03.812Z,17.38
2017-03-08T05:13:29.371Z,17.36
2017-03-08T05:13:55.510Z,17.36
2017-03-08T05:14:21.073Z,17.38
2017-03-08T05:14:46.648Z,17.35
2017-03-08T05:15:12.237Z,17.4
2017-03-08T05:15:37.794Z,17.38
2017-03-08T05:16:03.371Z,17.4
2017-03-08T05:16:28.932Z,17.4
2017-03-08T05:17:09.577Z,17.38
2017-03-08T05:17:35.124Z,17.4
2017-03-08T05:18:03.515Z,17.4
2017-03-08T05:18:29.086Z,17.4
2017-03-08T05:18:54.640Z,17.47
2017-03-08T05:19:20.211Z,17.38
2017-03-08T05:19:45.777Z,17.38
2017-03-08T05:20:11.698Z,17.4
2017-03-08T05:20:37.276Z,17.4
2017-03-08T05:21:03.531Z,17.38
2017-03-08T05:21:29.086Z,17.4
2017-03-08T05:21:54.706Z,17.41
2017-03-08T05:22:20.877Z,17.4
2017-03-08T05:22:47.253Z,17.41
2017-03-08T05:23:12.669Z,17.41
2017-03-08T05:23:38.223Z,17.36
2017-03-08T05:24:04.464Z,17.36
2017-03-08T05:24:30.147Z,17.36
2017-03-08T05:25:23.450Z,17.4
2017-03-08T05:25:49.040Z,17.38
2017-03-08T05:27:57.151Z,17.36
2017-03-08T05:28:22.706Z,17.4
2017-03-08T05:28:48.292Z,17.38
2017-03-08T05:29:14.048Z,17.4
2017-03-08T05:29:39.582Z,17.36
2017-03-08T05:30:05.159Z,17.4
2017-03-08T05:30:30.701Z,17.4
2017-03-08T05:30:56.267Z,17.43
2017-03-08T05:31:21.860Z,17.43
2017-03-08T05:31:47.417Z,17.38
2017-03-08T05:32:13.851Z,17.41
2017-03-08T05:32:38.562Z,17.41
2017-03-08T05:33:04.117Z,17.4
2017-03-08T05:33:29.728Z,17.4
2017-03-08T05:33:55.270Z,17.38
2017-03-08T05:34:20.847Z,17.41
2017-03-08T05:34:46.408Z,17.35
2017-03-08T05:35:11.981Z,17.46
2017-03-08T05:35:37.536Z,17.33
2017-03-08T05:36:03.082Z,17.4
2017-03-08T05:36:28.616Z,17.41
2017-03-08T05:36:54.161Z,17.38
2017-03-08T05:37:19.738Z,17.4
2017-03-08T05:37:45.330Z,17.38
2017-03-08T05:38:10.938Z,17.41
2017-03-08T05:38:36.496Z,17.41
2017-03-08T05:39:02.080Z,17.4
2017-03-08T05:39:27.610Z,17.4
2017-03-08T05:39:53.159Z,17.41
2017-03-08T05:40:18.749Z,17.43
2017-03-08T05:40:44.309Z,17.41
2017-03-08T05:41:09.868Z,17.41
2017-03-08T05:41:35.435Z,17.41
2017-03-08T05:42:01.000Z,17.41
2017-03-08T05:42:26.572Z,17.43
2017-03-08T05:42:52.149Z,17.41
2017-03-08T05:43:17.737Z,17.43
2017-03-08T05:43:43.310Z,17.43
2017-03-08T05:44:08.886Z,17.5
2017-03-08T05:44:35.007Z,17.43
2017-03-08T05:45:00.581Z,17.43
2017-03-08T05:45:26.136Z,17.41
2017-03-08T05:45:52.537Z,17.43
2017-03-08T05:46:18.098Z,17.43
2017-03-08T05:46:43.672Z,17.4
2017-03-08T05:47:09.857Z,17.44
2017-03-08T05:47:34.812Z,17.46
2017-03-08T05:48:00.377Z,17.4
2017-03-08T05:48:25.947Z,17.41
2017-03-08T05:48:51.491Z,17.4
2017-03-08T05:49:17.141Z,17.4
2017-03-08T05:49:42.719Z,17.41
2017-03-08T05:50:08.294Z,17.43
2017-03-08T05:50:33.835Z,17.43
2017-03-08T05:50:59.371Z,17.41
2017-03-08T05:51:24.977Z,17.41
2017-03-08T05:51:50.577Z,17.4
2017-03-08T05:52:16.139Z,17.38
2017-03-08T05:52:41.762Z,17.41
2017-03-08T05:53:07.323Z,17.43
2017-03-08T05:53:32.880Z,17.46
2017-03-08T05:53:58.420Z,17.43
2017-03-08T05:54:23.972Z,17.46
2017-03-08T05:54:49.515Z,17.43
2017-03-08T05:55:15.083Z,17.46
2017-03-08T05:55:40.643Z,17.43
2017-03-08T05:56:06.222Z,17.46
2017-03-08T05:56:31.772Z,17.46
2017-03-08T05:56:57.343Z,17.41
2017-03-08T05:57:22.910Z,17.41
2017-03-08T05:57:48.480Z,17.46
2017-03-08T05:58:14.051Z,17.41
2017-03-08T05:58:39.603Z,17.4
2017-03-08T05:59:05.308Z,17.43
2017-03-08T05:59:30.885Z,17.41
2017-03-08T05:59:56.488Z,17.43
2017-03-08T06:00:22.041Z,17.46
2017-03-08T06:01:10.196Z,17.38
2017-03-08T06:01:35.959Z,17.4
2017-03-08T06:02:01.523Z,17.4
2017-03-08T06:02:27.070Z,17.41
2017-03-08T06:02:52.628Z,17.43
2017-03-08T06:03:18.193Z,17.43
2017-03-08T06:03:43.768Z,17.41
2017-03-08T06:04:09.344Z,17.44
2017-03-08T06:04:34.909Z,17.4
2017-03-08T06:05:00.507Z,17.44
2017-03-08T06:05:26.157Z,17.41
2017-03-08T06:05:51.803Z,17.46
2017-03-08T06:06:18.184Z,17.43
2017-03-08T06:06:43.738Z,17.44
2017-03-08T06:07:09.301Z,17.41
2017-03-08T06:07:34.923Z,17.44
2017-03-08T06:08:00.500Z,17.43
2017-03-08T06:08:26.047Z,17.43
2017-03-08T06:08:51.593Z,17.46
2017-03-08T06:09:17.136Z,17.41
2017-03-08T06:09:42.680Z,17.4
2017-03-08T06:10:51.289Z,17.43
2017-03-08T06:11:16.848Z,17.44
2017-03-08T06:11:42.439Z,17.43
2017-03-08T06:12:08.002Z,17.44
2017-03-08T06:12:33.598Z,17.4
2017-03-08T06:12:59.149Z,17.43
2017-03-08T06:13:24.722Z,17.4
2017-03-08T06:13:50.294Z,17.4
2017-03-08T06:14:15.865Z,17.41
2017-03-08T06:14:41.560Z,17.43
2017-03-08T06:15:07.106Z,17.38
2017-03-08T06:15:32.648Z,17.4
2017-03-08T06:15:58.181Z,17.46
2017-03-08T06:16:23.755Z,17.35
2017-03-08T06:16:49.310Z,17.43
2017-03-08T06:17:14.877Z,17.46
2017-03-08T06:17:40.444Z,17.46
2017-03-08T06:18:05.982Z,17.38
2017-03-08T06:18:31.542Z,17.43
2017-03-08T06:18:57.097Z,17.4
2017-03-08T06:19:22.741Z,17.44
2017-03-08T06:19:48.343Z,17.41
2017-03-08T06:20:13.908Z,17.43
2017-03-08T06:20:39.546Z,17.43
2017-03-08T06:21:05.088Z,17.43
2017-03-08T06:21:30.672Z,17.43
2017-03-08T06:21:56.241Z,17.46
2017-03-08T06:22:21.800Z,17.43
2017-03-08T06:22:47.384Z,17.44
2017-03-08T06:23:12.949Z,17.43
2017-03-08T06:23:39.189Z,17.41
2017-03-08T06:24:04.164Z,17.4
2017-03-08T06:24:29.776Z,17.46
2017-03-08T06:24:55.365Z,17.43
2017-03-08T06:25:20.951Z,17.41
2017-03-08T06:25:46.564Z,17.38
2017-03-08T06:26:12.141Z,17.46
2017-03-08T06:26:37.718Z,17.4
2017-03-08T06:27:03.289Z,17.44
2017-03-08T06:27:28.854Z,17.36
2017-03-08T06:27:54.469Z,17.46
2017-03-08T06:28:19.968Z,17.43
2017-03-08T06:28:45.527Z,17.41
2017-03-08T06:29:11.082Z,17.46
2017-03-08T06:29:36.652Z,17.41
2017-03-08T06:30:02.218Z,17.35
2017-03-08T06:30:27.915Z,17.4
2017-03-08T06:30:53.511Z,17.33
2017-03-08T06:31:19.088Z,17.4
2017-03-08T06:31:44.660Z,17.46
2017-03-08T06:32:10.231Z,17.5
2017-03-08T06:32:35.830Z,17.48
2017-03-08T06:33:01.388Z,17.47
2017-03-08T06:33:27.057Z,17.43
2017-03-08T06:33:52.690Z,17.4
2017-03-08T06:34:18.231Z,17.36
2017-03-08T06:34:43.803Z,17.4
2017-03-08T06:35:09.361Z,17.41
2017-03-08T06:35:34.933Z,17.4
2017-03-08T06:36:00.484Z,17.41
2017-03-08T06:36:26.041Z,17.4
2017-03-08T06:36:51.980Z,17.41
2017-03-08T06:37:17.546Z,17.46
2017-03-08T06:37:43.101Z,17.38
2017-03-08T06:38:08.640Z,17.44
2017-03-08T06:38:34.203Z,17.38
2017-03-08T06:38:59.770Z,17.35
2017-03-08T06:39:25.337Z,17.41
2017-03-08T06:39:50.930Z,17.35
2017-03-08T06:40:17.194Z,17.38
2017-03-08T06:40:42.048Z,17.4
2017-03-08T06:41:07.702Z,17.41
2017-03-08T06:41:33.369Z,17.41
2017-03-08T06:41:58.931Z,17.36
2017-03-08T06:42:24.489Z,17.41
2017-03-08T06:42:50.056Z,17.4
2017-03-08T06:43:15.641Z,17.4
2017-03-08T06:43:41.203Z,17.4
2017-03-08T06:44:06.827Z,17.4
2017-03-08T06:44:33.279Z,17.36
2017-03-08T06:44:58.836Z,17.4
2017-03-08T06:45:24.399Z,17.41
2017-03-08T06:45:50.034Z,17.38
2017-03-08T06:46:15.651Z,17.36
2017-03-08T06:46:41.214Z,17.4
2017-03-08T06:47:06.791Z,17.44
2017-03-08T06:47:32.410Z,17.35
2017-03-08T06:47:58.696Z,17.38
2017-03-08T06:48:23.542Z,17.41
2017-03-08T06:48:49.693Z,17.36
2017-03-08T06:49:14.698Z,17.4
2017-03-08T06:49:40.271Z,17.36
2017-03-08T06:50:05.821Z,17.38
2017-03-08T06:50:31.390Z,17.4
2017-03-08T06:50:56.950Z,17.44
2017-03-08T06:51:22.511Z,17.36
2017-03-08T06:51:48.091Z,17.4
2017-03-08T06:52:13.640Z,17.35
2017-03-08T06:52:39.207Z,17.46
2017-03-08T06:53:05.694Z,17.44
2017-03-08T06:53:30.346Z,17.33
2017-03-08T06:53:55.913Z,17.38
2017-03-08T06:54:21.444Z,17.35
2017-03-08T06:54:47.114Z,17.46
2017-03-08T06:55:12.662Z,17.38
2017-03-08T06:55:38.209Z,17.41
2017-03-08T06:56:03.761Z,17.36
2017-03-08T06:56:29.319Z,17.46
2017-03-08T06:56:54.968Z,17.38
2017-03-08T06:58:03.656Z,17.33
2017-03-08T06:58:29.210Z,17.4
2017-03-08T06:58:54.762Z,17.44
2017-03-08T06:59:20.341Z,17.35
2017-03-08T06:59:45.919Z,17.33
2017-03-08T07:00:12.399Z,17.38
2017-03-08T07:01:15.564Z,17.35
2017-03-08T07:01:41.885Z,17.44
2017-03-08T07:02:07.452Z,17.35
2017-03-08T07:02:33.055Z,17.36
2017-03-08T07:02:58.629Z,17.41
2017-03-08T07:03:24.219Z,17.35
2017-03-08T07:03:49.765Z,17.3
2017-03-08T07:04:15.345Z,17.38
2017-03-08T07:04:40.909Z,17.32
2017-03-08T07:05:06.458Z,17.35
2017-03-08T07:05:32.001Z,17.41
2017-03-08T07:05:57.571Z,17.33
2017-03-08T07:06:23.126Z,17.43
2017-03-08T07:06:48.697Z,17.35
2017-03-08T07:07:14.268Z,17.32
2017-03-08T07:07:39.916Z,17.44
2017-03-08T07:08:05.471Z,17.41
2017-03-08T07:08:31.827Z,17.35
2017-03-08T07:08:57.388Z,17.32
2017-03-08T07:09:22.965Z,17.36
2017-03-08T07:09:48.506Z,17.38
2017-03-08T07:10:14.071Z,17.4
2017-03-08T07:10:39.635Z,17.35
2017-03-08T07:11:05.802Z,17.32
2017-03-08T07:11:30.773Z,17.35
2017-03-08T07:11:56.371Z,17.35
2017-03-08T07:12:21.949Z,17.36
2017-03-08T07:12:47.507Z,17.33
2017-03-08T07:13:13.102Z,17.32
2017-03-08T07:13:38.677Z,17.3
2017-03-08T07:14:04.240Z,17.23
2017-03-08T07:14:29.796Z,17.32
2017-03-08T07:14:55.389Z,17.36
2017-03-08T07:15:21.804Z,17.44
2017-03-08T07:15:46.510Z,17.4
2017-03-08T07:16:12.079Z,17.33
2017-03-08T07:16:37.640Z,17.32
2017-03-08T07:17:03.198Z,17.33
2017-03-08T07:17:28.770Z,17.33
2017-03-08T07:17:54.380Z,17.33
2017-03-08T07:18:19.958Z,17.33
2017-03-08T07:18:45.549Z,17.28
2017-03-08T07:19:11.111Z,17.3
2017-03-08T07:19:36.689Z,17.29
2017-03-08T07:20:02.258Z,17.28
2017-03-08T07:20:27.816Z,17.38
2017-03-08T07:20:53.420Z,17.26
2017-03-08T07:21:18.980Z,17.41
2017-03-08T07:21:44.533Z,17.29
2017-03-08T07:22:10.091Z,17.32
2017-03-08T07:22:35.652Z,17.4
2017-03-08T07:23:01.209Z,17.38
2017-03-08T07:23:26.771Z,17.29
2017-03-08T07:23:52.394Z,17.32
2017-03-08T07:24:18.802Z,17.22
2017-03-08T07:24:43.470Z,17.35
2017-03-08T07:25:09.033Z,17.38
2017-03-08T07:25:34.681Z,17.28
2017-03-08T07:26:00.241Z,17.38
2017-03-08T07:26:25.815Z,17.26
2017-03-08T07:26:51.574Z,17.33
2017-03-08T07:27:17.804Z,17.35
2017-03-08T07:27:42.695Z,17.28
2017-03-08T07:28:08.265Z,17.3
2017-03-08T07:28:33.815Z,17.33
2017-03-08T07:28:59.377Z,17.41
2017-03-08T07:29:24.937Z,17.29
2017-03-08T07:29:50.531Z,17.35
2017-03-08T07:30:16.088Z,17.32
2017-03-08T07:30:41.663Z,17.28
2017-03-08T07:31:07.222Z,17.29
2017-03-08T07:31:32.791Z,17.26
2017-03-08T07:31:58.379Z,17.29
2017-03-08T07:32:23.970Z,17.35
2017-03-08T07:32:49.537Z,17.29
2017-03-08T07:33:15.807Z,17.38
2017-03-08T07:33:40.790Z,17.29
2017-03-08T07:34:06.361Z,17.35
2017-03-08T07:34:31.929Z,17.36
2017-03-08T07:34:57.615Z,17.32
2017-03-08T07:35:23.180Z,17.35
2017-03-08T07:35:48.855Z,17.3
2017-03-08T07:36:14.478Z,17.32
2017-03-08T07:36:40.041Z,17.28
2017-03-08T07:37:05.572Z,17.29
2017-03-08T07:37:31.139Z,17.4
2017-03-08T07:37:56.702Z,17.29
2017-03-08T07:38:22.265Z,17.38
2017-03-08T07:38:47.821Z,17.33
2017-03-08T07:39:13.379Z,17.28
2017-03-08T07:39:38.940Z,17.28
2017-03-08T07:40:04.547Z,17.41
2017-03-08T07:40:30.107Z,17.29
2017-03-08T07:40:55.671Z,17.29
2017-03-08T07:41:21.251Z,17.32
2017-03-08T07:41:46.819Z,17.29
2017-03-08T07:42:12.401Z,17.29
2017-03-08T07:42:37.970Z,17.4
2017-03-08T07:43:03.549Z,17.29
2017-03-08T07:43:29.085Z,17.28
2017-03-08T07:43:54.682Z,17.29
2017-03-08T07:44:20.243Z,17.29
2017-03-08T07:44:45.799Z,17.26
2017-03-08T07:45:11.397Z,17.3
2017-03-08T07:45:36.953Z,17.4
2017-03-08T07:46:02.513Z,17.3
2017-03-08T07:46:28.090Z,17.33
2017-03-08T07:46:53.647Z,17.3
2017-03-08T07:47:19.275Z,17.3
2017-03-08T07:47:44.842Z,17.28
2017-03-08T07:48:10.410Z,17.26
2017-03-08T07:48:35.980Z,17.32
2017-03-08T07:49:02.388Z,17.29
2017-03-08T07:49:27.950Z,17.26
2017-03-08T07:49:53.510Z,17.25
2017-03-08T07:50:19.078Z,17.3
2017-03-08T07:50:44.721Z,17.32
2017-03-08T07:51:10.270Z,17.35
2017-03-08T07:51:35.817Z,17.26
2017-03-08T07:52:01.375Z,17.32
2017-03-08T07:52:26.921Z,17.29
2017-03-08T07:52:52.486Z,17.33
2017-03-08T07:53:18.072Z,17.33
2017-03-08T07:53:43.619Z,17.32
2017-03-08T07:54:09.180Z,17.29
2017-03-08T07:54:34.748Z,17.26
2017-03-08T07:55:00.368Z,17.28
2017-03-08T07:55:25.966Z,17.26
2017-03-08T07:55:51.526Z,17.33
2017-03-08T07:56:17.101Z,17.28
2017-03-08T07:56:42.663Z,17.33
2017-03-08T07:57:08.227Z,17.28
2017-03-08T07:57:33.786Z,17.28
2017-03-08T07:57:59.363Z,17.3
2017-03-08T07:58:24.939Z,17.3
2017-03-08T07:58:50.603Z,17.35
2017-03-08T07:59:16.174Z,17.29
2017-03-08T07:59:41.753Z,17.28
2017-03-08T08:00:07.308Z,17.28
2017-03-08T08:00:32.888Z,17.28
2017-03-08T08:00:58.443Z,17.3
2017-03-08T08:01:24.217Z,17.29
2017-03-08T08:01:50.001Z,17.29
2017-03-08T08:02:15.553Z,17.29
2017-03-08T08:02:41.118Z,17.33
2017-03-08T08:03:06.682Z,17.28
2017-03-08T08:03:32.241Z,17.3
2017-03-08T08:03:57.807Z,17.29
2017-03-08T08:04:23.368Z,17.26
2017-03-08T08:04:49.701Z,17.32
2017-03-08T08:05:15.281Z,17.29
2017-03-08T08:05:40.842Z,17.28
2017-03-08T08:06:06.414Z,17.26
2017-03-08T08:06:31.969Z,17.32
2017-03-08T08:06:57.561Z,17.25
2017-03-08T08:07:23.159Z,17.33
2017-03-08T08:07:48.724Z,17.3
2017-03-08T08:08:14.450Z,17.25
2017-03-08T08:08:40.049Z,17.29
2017-03-08T08:09:05.605Z,17.28
2017-03-08T08:09:31.168Z,17.26
2017-03-08T08:09:56.724Z,17.28
2017-03-08T08:10:22.281Z,17.32
2017-03-08T08:10:47.859Z,17.25
2017-03-08T08:11:13.441Z,17.28
2017-03-08T08:11:38.985Z,17.26
2017-03-08T08:12:04.528Z,17.26
2017-03-08T08:12:30.111Z,17.23
2017-03-08T08:12:55.665Z,17.23
2017-03-08T08:13:21.296Z,17.22
2017-03-08T08:13:46.858Z,17.25
2017-03-08T08:14:12.411Z,17.22
2017-03-08T08:14:38.833Z,17.28
2017-03-08T08:15:03.637Z,17.22
2017-03-08T08:15:29.211Z,17.23
2017-03-08T08:15:55.489Z,17.25
2017-03-08T08:16:21.054Z,17.2
2017-03-08T08:16:46.617Z,17.3
2017-03-08T08:17:12.209Z,17.28
2017-03-08T08:17:37.766Z,17.25
2017-03-08T08:18:03.318Z,17.3
2017-03-08T08:18:28.886Z,17.33
2017-03-08T08:18:54.476Z,17.25
2017-03-08T08:19:20.041Z,17.26
2017-03-08T08:19:45.600Z,17.29
2017-03-08T08:20:11.186Z,17.32
2017-03-08T08:20:36.777Z,17.25
2017-03-08T08:21:02.360Z,17.22
2017-03-08T08:21:27.920Z,17.26
2017-03-08T08:21:53.489Z,17.26
2017-03-08T08:22:20.359Z,17.28
2017-03-08T08:22:45.940Z,17.29
2017-03-08T08:23:11.505Z,17.18
2017-03-08T08:23:37.092Z,17.25
2017-03-08T08:24:03.334Z,17.18
2017-03-08T08:24:28.220Z,17.25
2017-03-08T08:24:53.764Z,17.22
2017-03-08T08:25:19.333Z,17.26
2017-03-08T08:25:45.011Z,17.3
2017-03-08T08:26:10.576Z,17.28
2017-03-08T08:26:36.846Z,17.25
2017-03-08T08:27:01.674Z,17.25
2017-03-08T08:27:27.263Z,17.25
2017-03-08T08:27:52.826Z,17.26
2017-03-08T08:28:18.410Z,17.2
2017-03-08T08:28:43.987Z,17.29
2017-03-08T08:29:09.551Z,17.28
2017-03-08T08:29:35.126Z,17.25
2017-03-08T08:30:01.635Z,17.29
2017-03-08T08:30:27.260Z,17.28
2017-03-08T08:30:52.825Z,17.2
2017-03-08T08:31:18.383Z,17.22
2017-03-08T08:31:43.940Z,17.3
2017-03-08T08:32:09.500Z,17.22
2017-03-08T08:32:35.070Z,17.26
2017-03-08T08:33:00.688Z,17.25
2017-03-08T08:33:26.833Z,17.25
2017-03-08T08:33:51.811Z,17.23
2017-03-08T08:34:17.398Z,17.29
2017-03-08T08:34:42.981Z,17.23
2017-03-08T08:35:08.537Z,17.29
2017-03-08T08:35:34.116Z,17.2
2017-03-08T08:35:59.671Z,17.28
2017-03-08T08:36:25.271Z,17.22
2017-03-08T08:36:50.860Z,17.25
2017-03-08T08:37:16.432Z,17.25
2017-03-08T08:37:41.980Z,17.29
2017-03-08T08:38:07.631Z,17.22
2017-03-08T08:38:33.182Z,17.29
2017-03-08T08:38:58.849Z,17.25
2017-03-08T08:39:24.428Z,17.28
2017-03-08T08:39:49.981Z,17.26
2017-03-08T08:40:15.535Z,17.25
2017-03-08T08:40:41.172Z,17.25
2017-03-08T08:41:06.745Z,17.18
2017-03-08T08:41:32.330Z,17.22
2017-03-08T08:41:57.872Z,17.18
2017-03-08T08:42:23.433Z,17.18
2017-03-08T08:42:48.976Z,17.3
2017-03-08T08:43:14.537Z,17.26
2017-03-08T08:43:40.107Z,17.26
2017-03-08T08:44:05.696Z,17.17
2017-03-08T08:44:31.281Z,17.25
2017-03-08T08:44:56.842Z,17.2
2017-03-08T08:45:22.417Z,17.26
2017-03-08T08:45:48.018Z,17.26
2017-03-08T08:46:13.577Z,17.22
2017-03-08T08:46:39.249Z,17.23
2017-03-08T08:47:04.802Z,17.25
2017-03-08T08:47:30.359Z,17.2
2017-03-08T08:47:55.928Z,17.22
2017-03-08T08:48:22.346Z,17.25
2017-03-08T08:48:47.070Z,17.2
2017-03-08T08:49:12.641Z,17.18
2017-03-08T08:49:38.211Z,17.15
2017-03-08T08:50:03.767Z,17.22
2017-03-08T08:50:29.342Z,17.23
2017-03-08T08:50:54.890Z,17.25
2017-03-08T08:51:20.460Z,17.15
2017-03-08T08:51:46.027Z,17.18
2017-03-08T08:52:11.602Z,17.26
2017-03-08T08:52:37.161Z,17.22
2017-03-08T08:53:02.740Z,17.22
2017-03-08T08:53:28.294Z,17.26
2017-03-08T08:53:53.854Z,17.22
2017-03-08T08:54:52.205Z,17.28
2017-03-08T08:55:17.834Z,17.22
2017-03-08T08:55:43.395Z,17.26
2017-03-08T08:56:09.659Z,17.26
2017-03-08T08:56:35.229Z,17.28
2017-03-08T08:57:00.792Z,17.25
2017-03-08T08:57:26.351Z,17.25
2017-03-08T08:57:51.920Z,17.23
2017-03-08T08:58:18.436Z,17.18
2017-03-08T08:58:44.008Z,17.25
2017-03-08T08:59:09.676Z,17.22
2017-03-08T08:59:35.237Z,17.22
2017-03-08T09:00:00.802Z,17.23
2017-03-08T09:00:27.157Z,17.23
2017-03-08T09:00:52.794Z,17.25
2017-03-08T09:01:18.369Z,17.2
2017-03-08T09:01:43.945Z,17.28
2017-03-08T09:02:09.508Z,17.18
2017-03-08T09:02:35.088Z,17.29
2017-03-08T09:03:00.638Z,17.2
2017-03-08T09:03:26.184Z,17.26
2017-03-08T09:03:51.749Z,17.23
2017-03-08T09:04:17.331Z,17.26
2017-03-08T09:04:42.919Z,17.23
2017-03-08T09:05:08.438Z,17.25
2017-03-08T09:05:34.002Z,17.22
2017-03-08T09:05:59.557Z,17.22
2017-03-08T09:06:25.182Z,17.29
2017-03-08T09:06:50.760Z,17.18
2017-03-08T09:07:16.327Z,17.2
2017-03-08T09:07:41.906Z,17.2
2017-03-08T09:08:08.310Z,17.22
2017-03-08T09:08:33.860Z,17.28
2017-03-08T09:08:59.431Z,17.23
2017-03-08T09:09:24.987Z,17.23
2017-03-08T09:09:50.536Z,17.22
2017-03-08T09:10:16.666Z,17.23
2017-03-08T09:10:41.699Z,17.25
2017-03-08T09:11:07.298Z,17.18
2017-03-08T09:11:32.860Z,17.22
2017-03-08T09:11:58.435Z,17.2
2017-03-08T09:13:07.062Z,17.28
2017-03-08T09:13:32.619Z,17.25
2017-03-08T09:14:25.591Z,17.25
2017-03-08T09:14:51.125Z,17.25
2017-03-08T09:15:16.690Z,17.26
2017-03-08T09:15:42.960Z,17.32
2017-03-08T09:16:08.514Z,17.23
2017-03-08T09:16:34.104Z,17.2
2017-03-08T09:16:59.631Z,17.26
2017-03-08T09:17:25.208Z,17.26
2017-03-08T09:17:50.775Z,17.25
2017-03-08T09:18:16.342Z,17.23
2017-03-08T09:18:41.968Z,17.25
2017-03-08T09:19:07.523Z,17.18
2017-03-08T09:19:33.084Z,17.2
2017-03-08T09:19:58.648Z,17.26
2017-03-08T09:20:24.231Z,17.18
2017-03-08T09:20:50.319Z,17.25
2017-03-08T09:21:15.874Z,17.17
2017-03-08T09:21:41.418Z,17.26
2017-03-08T09:22:06.988Z,17.26
2017-03-08T09:22:32.537Z,17.22
2017-03-08T09:22:58.131Z,17.2
2017-03-08T09:23:23.718Z,17.23
2017-03-08T09:23:49.261Z,17.25
2017-03-08T09:24:14.899Z,17.22
2017-03-08T09:24:40.470Z,17.23
2017-03-08T09:25:06.049Z,17.23
2017-03-08T09:25:31.610Z,17.26
2017-03-08T09:25:57.183Z,17.28
2017-03-08T09:26:22.723Z,17.26
2017-03-08T09:26:48.288Z,17.26
2017-03-08T09:27:13.857Z,17.26
2017-03-08T09:27:39.427Z,17.26
2017-03-08T09:28:05.008Z,17.25
2017-03-08T09:28:30.564Z,17.26
2017-03-08T09:29:18.669Z,17.23
2017-03-08T09:29:44.221Z,17.22
2017-03-08T09:30:09.788Z,17.29
2017-03-08T09:30:35.350Z,17.23
2017-03-08T09:31:00.900Z,17.25
2017-03-08T09:31:26.451Z,17.26
2017-03-08T09:31:52.030Z,17.23
2017-03-08T09:32:17.591Z,17.2
2017-03-08T09:32:43.240Z,17.23
2017-03-08T09:33:08.853Z,17.25
2017-03-08T09:33:34.414Z,17.22
2017-03-08T09:33:59.956Z,17.29
2017-03-08T09:34:25.511Z,17.22
2017-03-08T09:34:51.061Z,17.23
2017-03-08T09:35:16.652Z,17.3
2017-03-08T09:35:42.242Z,17.29
2017-03-08T09:36:07.807Z,17.2
2017-03-08T09:36:33.446Z,17.25
2017-03-08T09:36:59.013Z,17.22
2017-03-08T09:37:24.591Z,17.26
2017-03-08T09:37:50.149Z,17.28
2017-03-08T09:38:15.767Z,17.26
2017-03-08T09:38:41.327Z,17.26
2017-03-08T09:39:06.892Z,17.23